17  °C
Temperature
10  °C
  Dewpoint
64  %
   Humidity
Temp | Dewpoint | Humidity
Wind Speed
 mph
Wind Speed
 kts
Wind Speed
Calm
Due North

Wind Speed
Clear
Conditions
Pressure 1025.92 (hPa) - 30.3 (in)
Visibility 6.2 (mi) - 10.0 (km)

Current Conditions
EGBJ
Location 6km (3.2mi)
Metar :EGBJ 201820Z 00000KT CAVOK 17/10 Q1026
Mon 20th September 18:20 pm

Airport
https://www.checkwx.com/
  Metar Aviation API Data Provided by https://www.checkwx.com/ CSS/SVG/PHP scripts by weather34.com © 2015-2021